EGQK

RAF Kinloss Airport

Kinloss, United Kingdom
METAR EGQK 191950Z AUTO 33006KT 9999 -RA BKN045/// 12/08 Q1014
Observed Flight Rules
Jun-19 @ 19:50 UTC (31 minutes ago) Visual Flight Rules
Wind Visibility Clouds Conditions
330° at 6 knots 10,000+ meters
  • Broken at 4,500' AGL
  • Light Rain
Temperatures Readings
Current 12°C / 54°F
Dewpoint 8°C / 46°F
Humidity 77%
Altimeter 29.94" Hg
Pressure 1014 hPa
Elevation 7
METAR EGQK 191950Z AUTO 33006KT 9999 -RA BKN045/// 12/08 Q1014
Observed Flight Rules
Jun-19 @ 19:50 UTC
(31 minutes ago)
VFR
Wind Visibility
330° at 6 knots 10,000+ meters
Clouds
  • Broken at 4,500' AGL
Conditions
  • Light Rain
Temperature Dewpoint
12°C / 54°F 8°C / 46°F
Humidity Altimeter Pressure
77% 29.94" Hg 1014 hPa